createdAt,value
2022-12-04T00:00:00.701Z,0.42
2022-12-04T00:02:27.362Z,0.44
2022-12-04T00:04:54.093Z,0.44
2022-12-04T00:07:20.706Z,0.35
2022-12-04T00:09:47.358Z,0.32
2022-12-04T00:12:13.891Z,0.37
2022-12-04T00:15:00.730Z,0.34
2022-12-04T00:17:26.989Z,0.36
2022-12-04T00:19:53.814Z,0.40
2022-12-04T00:22:21.140Z,0.39
2022-12-04T00:24:47.811Z,0.37
2022-12-04T00:27:14.617Z,0.47
2022-12-04T00:29:41.296Z,0.42
2022-12-04T00:32:07.911Z,0.49
2022-12-04T00:34:34.586Z,0.51
2022-12-04T00:37:01.141Z,0.48
2022-12-04T00:39:27.735Z,0.42
2022-12-04T00:41:54.818Z,0.44
2022-12-04T00:44:21.404Z,0.51
2022-12-04T00:46:47.945Z,0.48
2022-12-04T00:49:14.531Z,0.51
2022-12-04T00:51:41.115Z,0.59
2022-12-04T00:54:07.690Z,0.55
2022-12-04T00:56:34.263Z,0.48
2022-12-04T00:59:01.700Z,0.49
2022-12-04T01:01:29.759Z,0.49
2022-12-04T01:03:57.061Z,0.63
2022-12-04T01:06:30.168Z,0.54
2022-12-04T01:08:58.064Z,0.50
2022-12-04T01:11:26.627Z,0.55
2022-12-04T01:13:53.816Z,0.46
2022-12-04T01:16:23.860Z,0.59
2022-12-04T01:18:51.139Z,0.60
2022-12-04T01:21:18.874Z,0.58
2022-12-04T01:23:45.740Z,0.50
2022-12-04T01:26:13.006Z,0.53
2022-12-04T01:28:39.980Z,0.56
2022-12-04T01:31:10.325Z,0.51
2022-12-04T01:33:38.258Z,0.50
2022-12-04T01:36:07.836Z,0.45
2022-12-04T01:38:35.482Z,0.54
2022-12-04T01:41:02.377Z,0.56
2022-12-04T01:43:31.014Z,0.52
2022-12-04T01:46:01.265Z,0.54
2022-12-04T01:48:36.460Z,0.60
2022-12-04T01:51:18.627Z,0.60
2022-12-04T01:53:52.290Z,0.57
2022-12-04T01:56:22.593Z,0.61
2022-12-04T01:58:54.055Z,0.56
2022-12-04T02:01:20.935Z,0.50
2022-12-04T02:03:47.557Z,0.46
2022-12-04T02:06:14.149Z,0.50
2022-12-04T02:08:41.056Z,0.50
2022-12-04T02:11:26.336Z,0.58
2022-12-04T02:14:25.493Z,0.60
2022-12-04T02:16:55.042Z,0.65
2022-12-04T02:19:52.396Z,0.55
2022-12-04T02:22:31.275Z,0.66
2022-12-04T02:25:21.135Z,0.58
2022-12-04T02:28:08.944Z,0.56
2022-12-04T02:30:40.399Z,0.60
2022-12-04T02:33:27.503Z,0.64
2022-12-04T02:36:10.484Z,0.67
2022-12-04T02:38:40.617Z,0.67
2022-12-04T02:41:16.730Z,0.61
2022-12-04T02:43:52.354Z,0.67
2022-12-04T02:46:18.933Z,0.64
2022-12-04T02:48:50.760Z,0.67
2022-12-04T02:51:21.246Z,0.63
2022-12-04T02:53:53.132Z,0.69
2022-12-04T02:56:34.626Z,0.64
2022-12-04T02:59:09.846Z,0.58
2022-12-04T03:01:42.989Z,0.64
2022-12-04T03:04:16.651Z,0.60
2022-12-04T03:06:46.125Z,0.62
2022-12-04T03:09:18.117Z,0.73
2022-12-04T03:11:50.282Z,0.68
2022-12-04T03:14:22.266Z,0.70
2022-12-04T03:16:52.265Z,0.76
2022-12-04T03:19:24.444Z,0.75
2022-12-04T03:22:12.953Z,0.78
2022-12-04T03:24:45.659Z,0.83
2022-12-04T03:27:20.407Z,0.76
2022-12-04T03:30:15.873Z,0.86
2022-12-04T03:32:42.425Z,0.79
2022-12-04T03:35:14.941Z,0.89
2022-12-04T03:37:50.296Z,0.83
2022-12-04T03:40:34.164Z,0.66
2022-12-04T03:43:21.042Z,0.72
2022-12-04T03:45:51.663Z,0.72
2022-12-04T03:48:31.687Z,0.77
2022-12-04T03:51:08.495Z,0.72
2022-12-04T03:53:49.125Z,0.72
2022-12-04T03:56:21.590Z,0.77
2022-12-04T03:58:55.728Z,0.67
2022-12-04T04:01:27.626Z,0.70
2022-12-04T04:03:57.846Z,0.77
2022-12-04T04:06:29.653Z,0.72
2022-12-04T04:09:02.320Z,0.74
2022-12-04T04:11:37.665Z,0.79
2022-12-04T04:14:35.714Z,0.78
2022-12-04T04:17:25.258Z,0.82
2022-12-04T04:20:19.949Z,0.84
2022-12-04T04:23:07.847Z,0.81
2022-12-04T04:25:37.796Z,0.77
2022-12-04T04:28:04.428Z,0.72
2022-12-04T04:30:32.734Z,0.77
2022-12-04T04:33:16.186Z,0.81
2022-12-04T04:35:52.061Z,0.85
2022-12-04T04:38:31.723Z,0.76
2022-12-04T04:41:05.407Z,0.79
2022-12-04T04:43:40.657Z,0.82
2022-12-04T04:46:14.117Z,0.78
2022-12-04T04:48:44.920Z,0.81
2022-12-04T04:51:11.875Z,0.85
2022-12-04T04:53:51.539Z,0.81
2022-12-04T04:56:19.060Z,0.80
2022-12-04T04:58:45.812Z,0.93
2022-12-04T05:01:16.056Z,0.90
2022-12-04T05:03:42.759Z,0.81
2022-12-04T05:06:09.499Z,0.94
2022-12-04T05:08:36.838Z,0.88
2022-12-04T05:11:04.081Z,0.95
2022-12-04T05:13:31.069Z,1.02
2022-12-04T05:16:06.144Z,1.09
2022-12-04T05:18:34.827Z,1.11
2022-12-04T05:21:18.702Z,1.17
2022-12-04T05:23:45.324Z,1.08
2022-12-04T05:26:12.045Z,1.09
2022-12-04T05:28:40.809Z,1.05
2022-12-04T05:31:07.474Z,1.04
2022-12-04T05:33:34.061Z,1.11
2022-12-04T05:36:04.122Z,1.06
2022-12-04T05:38:31.246Z,1.21
2022-12-04T05:40:58.947Z,1.09
2022-12-04T05:43:25.887Z,1.16
2022-12-04T05:45:52.520Z,1.12
2022-12-04T05:48:19.103Z,1.00
2022-12-04T05:50:45.738Z,1.14
2022-12-04T05:53:12.487Z,1.19
2022-12-04T05:55:39.059Z,1.17
2022-12-04T05:58:05.626Z,1.10
2022-12-04T06:00:33.297Z,1.10
2022-12-04T06:02:59.981Z,1.10
2022-12-04T06:05:26.649Z,1.17
2022-12-04T06:07:53.302Z,1.11
2022-12-04T06:10:19.890Z,1.15
2022-12-04T06:12:46.494Z,1.24
2022-12-04T06:15:13.070Z,1.19
2022-12-04T06:17:39.700Z,1.19
2022-12-04T06:20:11.421Z,1.16
2022-12-04T06:22:38.426Z,1.20
2022-12-04T06:25:05.332Z,1.19
2022-12-04T06:27:31.878Z,1.18
2022-12-04T06:29:59.143Z,1.20
2022-12-04T06:32:26.221Z,1.23
2022-12-04T06:34:54.400Z,1.20
2022-12-04T06:37:23.120Z,1.24
2022-12-04T06:39:49.665Z,1.23
2022-12-04T06:42:16.550Z,1.18
2022-12-04T06:44:43.112Z,1.22
2022-12-04T06:47:09.847Z,1.20
2022-12-04T06:49:36.504Z,1.17
2022-12-04T06:52:03.468Z,1.20
2022-12-04T06:54:30.049Z,1.19
2022-12-04T06:56:56.748Z,1.17
2022-12-04T06:59:23.809Z,1.24
2022-12-04T07:01:50.675Z,1.17
2022-12-04T07:04:17.425Z,1.22
2022-12-04T07:06:44.008Z,1.27
2022-12-04T07:09:14.270Z,1.27
2022-12-04T07:11:42.300Z,1.29
2022-12-04T07:14:09.609Z,1.30
2022-12-04T07:16:40.780Z,1.28
2022-12-04T07:19:13.016Z,1.37
2022-12-04T07:21:39.682Z,1.31
2022-12-04T07:24:06.485Z,1.32
2022-12-04T07:26:33.141Z,1.38
2022-12-04T07:28:59.894Z,1.42
2022-12-04T07:31:28.116Z,1.40
2022-12-04T07:33:55.486Z,1.44
2022-12-04T07:36:23.020Z,1.38
2022-12-04T07:38:50.456Z,1.42
2022-12-04T07:41:18.094Z,1.43
2022-12-04T07:43:45.291Z,1.51
2022-12-04T07:46:21.034Z,1.49
2022-12-04T07:48:47.745Z,1.51
2022-12-04T07:51:20.312Z,1.62
2022-12-04T07:53:47.129Z,1.57
2022-12-04T07:56:14.157Z,1.67
2022-12-04T07:58:41.546Z,1.70
2022-12-04T08:01:12.872Z,1.65
2022-12-04T08:03:46.774Z,1.64
2022-12-04T08:06:15.592Z,1.68
2022-12-04T08:08:42.146Z,1.76
2022-12-04T08:11:11.447Z,1.73
2022-12-04T08:13:38.047Z,1.79
2022-12-04T08:16:06.378Z,1.79
2022-12-04T08:18:33.502Z,1.76
2022-12-04T08:21:08.615Z,1.83
2022-12-04T08:23:36.097Z,1.82
2022-12-04T08:26:04.104Z,1.81
2022-12-04T08:28:31.606Z,1.85
2022-12-04T08:31:07.054Z,1.86
2022-12-04T08:33:34.647Z,1.95
2022-12-04T08:36:01.514Z,1.85
2022-12-04T08:38:28.079Z,1.92
2022-12-04T08:40:54.626Z,1.89
2022-12-04T08:43:21.231Z,1.96
2022-12-04T08:45:58.940Z,1.94
2022-12-04T08:48:26.197Z,1.93
2022-12-04T08:50:53.086Z,2.02
2022-12-04T08:53:20.114Z,2.11
2022-12-04T08:55:46.830Z,2.29
2022-12-04T08:58:14.032Z,2.18
2022-12-04T09:00:40.893Z,2.12
2022-12-04T09:03:07.541Z,2.16
2022-12-04T09:05:34.158Z,2.22
2022-12-04T09:08:00.869Z,2.18
2022-12-04T09:10:27.661Z,2.14
2022-12-04T09:12:54.396Z,2.27
2022-12-04T09:15:21.066Z,2.28
2022-12-04T09:17:47.665Z,2.34
2022-12-04T09:20:15.017Z,2.33
2022-12-04T09:23:02.993Z,2.47
2022-12-04T09:25:28.443Z,2.48
2022-12-04T09:27:54.999Z,2.50
2022-12-04T09:30:21.569Z,2.57
2022-12-04T09:32:48.132Z,2.71
2022-12-04T09:35:14.789Z,2.61
2022-12-04T09:37:41.350Z,2.67
2022-12-04T09:40:09.066Z,2.72
2022-12-04T09:43:08.080Z,2.68
2022-12-04T09:45:44.183Z,2.79
2022-12-04T09:48:12.526Z,2.90
2022-12-04T09:50:44.643Z,3.04
2022-12-04T09:53:19.451Z,2.95
2022-12-04T09:55:56.112Z,2.99
2022-12-04T09:58:32.643Z,2.95
2022-12-04T10:01:03.225Z,2.90
2022-12-04T10:03:30.566Z,2.95
2022-12-04T10:06:11.704Z,2.92
2022-12-04T10:08:51.228Z,3.01
2022-12-04T10:11:39.904Z,3.07
2022-12-04T10:14:15.407Z,3.02
2022-12-04T10:16:52.507Z,3.03
2022-12-04T10:19:48.389Z,3.05
2022-12-04T10:22:46.510Z,3.08
2022-12-04T10:25:19.863Z,3.14
2022-12-04T10:28:31.411Z,3.12
2022-12-04T10:31:02.427Z,3.11
2022-12-04T10:33:53.565Z,3.22
2022-12-04T10:36:25.406Z,3.12
2022-12-04T10:39:10.135Z,3.22
2022-12-04T10:41:55.061Z,3.11
2022-12-04T10:44:21.883Z,3.03
2022-12-04T10:46:50.874Z,3.01
2022-12-04T10:49:21.226Z,2.96
2022-12-04T10:51:48.234Z,3.02
2022-12-04T10:54:26.910Z,2.98
2022-12-04T10:57:12.289Z,2.93
2022-12-04T10:59:52.412Z,2.94
2022-12-04T11:02:24.309Z,2.98
2022-12-04T11:04:58.215Z,3.09
2022-12-04T11:07:31.203Z,3.17
2022-12-04T11:09:59.412Z,3.24
2022-12-04T11:12:26.133Z,3.29
2022-12-04T11:15:14.086Z,3.18
2022-12-04T11:17:40.967Z,3.13
2022-12-04T11:20:16.382Z,3.25
2022-12-04T11:22:53.823Z,3.34
2022-12-04T11:25:22.630Z,3.41
2022-12-04T11:27:53.056Z,3.47
2022-12-04T11:30:26.211Z,3.64
2022-12-04T11:32:54.267Z,3.62
2022-12-04T11:35:24.700Z,3.74
2022-12-04T11:38:07.535Z,3.67
2022-12-04T11:40:34.607Z,3.75
2022-12-04T11:43:03.467Z,3.67
2022-12-04T11:45:30.130Z,3.74
2022-12-04T11:48:03.254Z,3.77
2022-12-04T11:51:07.517Z,3.92
2022-12-04T11:54:11.150Z,3.82
2022-12-04T11:56:50.072Z,3.89
2022-12-04T11:59:30.842Z,3.82
2022-12-04T12:02:03.339Z,3.90
2022-12-04T12:04:41.857Z,3.81
2022-12-04T12:07:42.855Z,3.81
2022-12-04T12:10:18.795Z,3.80
2022-12-04T12:13:27.269Z,3.88
2022-12-04T12:16:21.737Z,3.82
2022-12-04T12:19:00.441Z,3.92
2022-12-04T12:21:36.450Z,4.10
2022-12-04T12:24:21.794Z,3.97
2022-12-04T12:27:02.427Z,3.95
2022-12-04T12:30:07.031Z,4.03
2022-12-04T12:32:58.256Z,4.00
2022-12-04T12:35:34.297Z,3.97
2022-12-04T12:38:21.970Z,4.11
2022-12-04T12:40:58.426Z,3.99
2022-12-04T12:43:31.577Z,3.92
2022-12-04T12:46:33.657Z,3.91
2022-12-04T12:49:13.800Z,3.94
2022-12-04T12:52:05.090Z,3.90
2022-12-04T12:54:41.417Z,3.92
2022-12-04T12:57:21.848Z,3.92
2022-12-04T12:59:54.496Z,3.91
2022-12-04T13:02:21.372Z,3.94
2022-12-04T13:04:55.319Z,3.93
2022-12-04T13:07:29.793Z,4.01
2022-12-04T13:10:13.445Z,4.04
2022-12-04T13:13:01.165Z,4.11
2022-12-04T13:15:39.075Z,4.10
2022-12-04T13:18:09.431Z,4.22
2022-12-04T13:20:51.495Z,4.27
2022-12-04T13:23:24.088Z,4.15
2022-12-04T13:26:25.638Z,4.10
2022-12-04T13:29:08.832Z,4.16
2022-12-04T13:31:46.069Z,4.15
2022-12-04T13:34:33.467Z,4.23
2022-12-04T13:37:17.748Z,4.26
2022-12-04T13:39:50.440Z,4.19
2022-12-04T13:42:24.970Z,4.12
2022-12-04T13:44:57.598Z,4.14
2022-12-04T13:47:33.505Z,4.03
2022-12-04T13:50:19.391Z,4.06
2022-12-04T13:52:49.110Z,4.10
2022-12-04T13:55:55.076Z,4.02
2022-12-04T13:58:21.647Z,4.10
2022-12-04T14:00:48.373Z,4.05
2022-12-04T14:03:25.277Z,4.08
2022-12-04T14:05:52.463Z,3.99
2022-12-04T14:08:19.047Z,4.09
2022-12-04T14:11:04.338Z,3.97
2022-12-04T14:13:45.570Z,3.93
2022-12-04T14:16:21.807Z,3.94
2022-12-04T14:18:56.157Z,4.00
2022-12-04T14:21:23.349Z,4.07
2022-12-04T14:23:52.004Z,3.97
2022-12-04T14:26:48.984Z,4.00
2022-12-04T14:29:41.777Z,3.95
2022-12-04T14:32:15.454Z,3.93
2022-12-04T14:34:42.740Z,3.89
2022-12-04T14:37:21.045Z,3.89
2022-12-04T14:39:49.554Z,3.93
2022-12-04T14:42:26.512Z,3.93
2022-12-04T14:44:56.500Z,3.95
2022-12-04T14:47:38.287Z,3.89
2022-12-04T14:50:32.290Z,3.79
2022-12-04T14:53:57.260Z,3.81
2022-12-04T14:57:05.458Z,3.70
2022-12-04T14:59:43.817Z,3.79
2022-12-04T15:02:18.635Z,3.74
2022-12-04T15:04:47.271Z,3.70
2022-12-04T15:07:22.766Z,3.66
2022-12-04T15:10:19.574Z,3.64
2022-12-04T15:12:53.561Z,3.66
2022-12-04T15:15:26.932Z,3.59
2022-12-04T15:17:57.867Z,3.64
2022-12-04T15:20:25.165Z,3.61
2022-12-04T15:22:53.991Z,3.59
2022-12-04T15:25:24.352Z,3.52
2022-12-04T15:27:53.677Z,3.51
2022-12-04T15:30:24.545Z,3.56
2022-12-04T15:32:53.404Z,3.48
2022-12-04T15:35:29.011Z,3.53
2022-12-04T15:37:56.091Z,3.57
2022-12-04T15:40:26.361Z,3.50
2022-12-04T15:42:53.421Z,3.54
2022-12-04T15:45:25.797Z,3.50
2022-12-04T15:47:54.157Z,3.58
2022-12-04T15:50:30.835Z,3.53
2022-12-04T15:53:02.078Z,3.57
2022-12-04T15:55:32.397Z,3.59
2022-12-04T15:58:06.054Z,3.58
2022-12-04T16:00:38.013Z,3.64
2022-12-04T16:03:26.823Z,3.58
2022-12-04T16:06:13.302Z,3.67
2022-12-04T16:08:41.899Z,3.69
2022-12-04T16:11:20.449Z,3.70
2022-12-04T16:14:05.568Z,3.74
2022-12-04T16:16:32.214Z,3.72
2022-12-04T16:18:58.990Z,3.68
2022-12-04T16:21:31.252Z,3.71
2022-12-04T16:24:04.890Z,3.73
2022-12-04T16:26:31.910Z,3.72
2022-12-04T16:28:59.210Z,3.72
2022-12-04T16:31:26.348Z,3.73
2022-12-04T16:33:53.042Z,3.73
2022-12-04T16:36:19.635Z,3.83
2022-12-04T16:38:46.395Z,3.89
2022-12-04T16:41:21.813Z,3.75
2022-12-04T16:43:57.541Z,3.71
2022-12-04T16:46:27.879Z,3.83
2022-12-04T16:48:54.827Z,3.82
2022-12-04T16:51:27.030Z,3.80
2022-12-04T16:53:54.646Z,3.76
2022-12-04T16:56:21.970Z,3.84
2022-12-04T16:58:49.092Z,3.89
2022-12-04T17:01:25.365Z,3.89
2022-12-04T17:03:52.507Z,3.84
2022-12-04T17:06:19.267Z,3.75
2022-12-04T17:08:46.124Z,3.80
2022-12-04T17:11:14.299Z,3.75
2022-12-04T17:13:41.872Z,3.78
2022-12-04T17:16:09.177Z,3.79
2022-12-04T17:18:36.278Z,3.70
2022-12-04T17:21:11.702Z,3.75
2022-12-04T17:23:39.081Z,3.71
2022-12-04T17:26:08.378Z,3.68
2022-12-04T17:28:36.413Z,3.76
2022-12-04T17:31:04.693Z,3.70
2022-12-04T17:33:32.269Z,3.78
2022-12-04T17:36:00.271Z,3.84
2022-12-04T17:38:27.907Z,3.81
2022-12-04T17:41:02.074Z,3.74
2022-12-04T17:43:29.891Z,3.74
2022-12-04T17:45:57.424Z,3.70
2022-12-04T17:48:24.501Z,3.72
2022-12-04T17:51:02.567Z,3.68
2022-12-04T17:53:29.173Z,3.66
2022-12-04T17:55:55.718Z,3.69
2022-12-04T17:58:22.304Z,3.62
2022-12-04T18:00:48.898Z,3.66
2022-12-04T18:03:15.583Z,3.54
2022-12-04T18:05:42.167Z,3.54
2022-12-04T18:08:08.795Z,3.54
2022-12-04T18:10:35.516Z,3.38
2022-12-04T18:13:02.075Z,3.60
2022-12-04T18:15:28.614Z,3.53
2022-12-04T18:17:55.390Z,3.41
2022-12-04T18:20:21.947Z,3.40
2022-12-04T18:22:48.510Z,3.44
2022-12-04T18:25:15.101Z,3.41
2022-12-04T18:27:42.117Z,3.41
2022-12-04T18:30:09.835Z,3.53
2022-12-04T18:32:36.406Z,3.49
2022-12-04T18:35:03.034Z,3.52
2022-12-04T18:37:29.591Z,3.50
2022-12-04T18:39:56.551Z,3.46
2022-12-04T18:42:24.188Z,3.56
2022-12-04T18:44:50.721Z,3.54
2022-12-04T18:47:17.314Z,3.47
2022-12-04T18:49:43.884Z,3.44
2022-12-04T18:52:10.432Z,3.34
2022-12-04T18:54:36.967Z,3.33
2022-12-04T18:57:03.658Z,3.28
2022-12-04T18:59:30.191Z,3.34
2022-12-04T19:01:56.807Z,3.22
2022-12-04T19:04:25.084Z,3.27
2022-12-04T19:06:54.325Z,3.19
2022-12-04T19:09:40.819Z,3.20
2022-12-04T19:12:11.085Z,3.23
2022-12-04T19:14:38.605Z,3.25
2022-12-04T19:17:05.571Z,3.29
2022-12-04T19:19:32.189Z,3.34
2022-12-04T19:21:59.170Z,3.30
2022-12-04T19:24:25.730Z,3.39
2022-12-04T19:26:54.288Z,3.39
2022-12-04T19:29:20.879Z,3.36
2022-12-04T19:31:47.552Z,3.35
2022-12-04T19:34:14.292Z,3.34
2022-12-04T19:36:41.681Z,3.46
2022-12-04T19:39:08.260Z,3.43
2022-12-04T19:41:37.022Z,3.50
2022-12-04T19:44:25.974Z,3.45
2022-12-04T19:46:51.216Z,3.50
2022-12-04T19:49:17.715Z,3.47
2022-12-04T19:51:44.437Z,3.44
2022-12-04T19:54:12.725Z,3.37
2022-12-04T19:56:39.270Z,3.37
2022-12-04T19:59:07.622Z,3.35
2022-12-04T20:01:35.469Z,3.42
2022-12-04T20:04:05.346Z,3.50
2022-12-04T20:06:37.137Z,3.69
2022-12-04T20:09:06.845Z,3.68
2022-12-04T20:11:33.622Z,3.64
2022-12-04T20:14:01.475Z,3.73
2022-12-04T20:16:31.043Z,3.75
2022-12-04T20:18:58.168Z,3.75
2022-12-04T20:21:28.386Z,3.78
2022-12-04T20:23:55.085Z,3.75
2022-12-04T20:26:24.363Z,3.80
2022-12-04T20:28:52.193Z,3.75
2022-12-04T20:31:23.388Z,3.79
2022-12-04T20:33:52.712Z,3.75
2022-12-04T20:36:21.816Z,3.68
2022-12-04T20:38:49.714Z,3.83
2022-12-04T20:41:16.639Z,3.67
2022-12-04T20:43:43.847Z,3.60
2022-12-04T20:46:15.606Z,3.61
2022-12-04T20:48:48.142Z,3.56
2022-12-04T20:51:18.845Z,3.56
2022-12-04T20:53:46.257Z,3.43
2022-12-04T20:56:13.553Z,3.41
2022-12-04T20:58:40.471Z,3.40
2022-12-04T21:01:13.111Z,3.39
2022-12-04T21:03:40.026Z,3.36
2022-12-04T21:06:14.315Z,3.32
2022-12-04T21:08:53.942Z,3.38
2022-12-04T21:11:21.774Z,3.33
2022-12-04T21:14:06.952Z,3.30
2022-12-04T21:16:33.799Z,3.36
2022-12-04T21:19:00.789Z,3.31
2022-12-04T21:21:27.656Z,3.28
2022-12-04T21:23:54.238Z,3.38
2022-12-04T21:26:20.897Z,3.34
2022-12-04T21:28:47.716Z,3.34
2022-12-04T21:31:14.577Z,3.22
2022-12-04T21:33:41.206Z,3.20
2022-12-04T21:36:09.238Z,3.12
2022-12-04T21:38:37.112Z,3.11
2022-12-04T21:41:05.699Z,3.11
2022-12-04T21:43:33.389Z,3.06
2022-12-04T21:46:09.455Z,2.98
2022-12-04T21:48:37.069Z,3.10
2022-12-04T21:51:16.853Z,2.99
2022-12-04T21:53:54.841Z,2.93
2022-12-04T21:56:22.687Z,2.93
2022-12-04T21:58:49.583Z,2.92
2022-12-04T22:01:17.839Z,2.89
2022-12-04T22:03:44.471Z,2.79
2022-12-04T22:06:11.318Z,2.79
2022-12-04T22:08:41.743Z,2.79
2022-12-04T22:11:10.537Z,2.79
2022-12-04T22:13:37.523Z,2.87
2022-12-04T22:16:07.328Z,2.97
2022-12-04T22:18:34.760Z,2.94
2022-12-04T22:21:05.082Z,2.90
2022-12-04T22:23:31.627Z,3.00
2022-12-04T22:26:05.323Z,3.15
2022-12-04T22:28:31.946Z,3.05
2022-12-04T22:31:07.391Z,3.09
2022-12-04T22:33:34.117Z,3.10
2022-12-04T22:36:09.752Z,3.13
2022-12-04T22:38:52.686Z,3.25
2022-12-04T22:41:25.213Z,3.33
2022-12-04T22:43:51.881Z,3.37
2022-12-04T22:46:18.957Z,3.49
2022-12-04T22:48:46.216Z,3.72
2022-12-04T22:51:16.203Z,3.88
2022-12-04T22:53:45.740Z,4.23
2022-12-04T22:56:15.400Z,4.46
2022-12-04T22:58:44.079Z,4.67
2022-12-04T23:01:22.794Z,4.81
2022-12-04T23:03:49.957Z,4.94
2022-12-04T23:06:18.404Z,5.03
2022-12-04T23:08:45.638Z,5.01
2022-12-04T23:11:18.341Z,5.12
2022-12-04T23:13:53.390Z,5.16
2022-12-04T23:16:21.878Z,5.18
2022-12-04T23:18:48.927Z,5.21
2022-12-04T23:21:16.555Z,5.18
2022-12-04T23:23:45.458Z,5.12
2022-12-04T23:26:14.767Z,5.14
2022-12-04T23:28:41.908Z,5.16
2022-12-04T23:31:08.956Z,5.20
2022-12-04T23:33:35.649Z,5.17
2022-12-04T23:36:03.319Z,5.27
2022-12-04T23:38:30.611Z,5.29
2022-12-04T23:41:11.262Z,5.30
2022-12-04T23:43:38.355Z,5.36
2022-12-04T23:46:11.022Z,5.49
2022-12-04T23:48:39.222Z,5.39
2022-12-04T23:51:06.187Z,5.37
2022-12-04T23:53:32.913Z,5.45
2022-12-04T23:56:00.952Z,5.55
2022-12-04T23:58:27.554Z,5.46
